Time;durP1;ratioP1;P1;durP2;ratioP2;P2;SDS_P1;SDS_P2;PMS_P1;PMS_P2;Temp;Humidity;BMP_temperature;BMP_pressure;BME280_temperature;BME280_humidity;BME280_pressure;Samples;Min_cycle;Max_cycle;Signal;HPM_P1;HPM_P2
2022/03/26 00:01:44;;;;;;;59.65;35.90;;;;;;;;;;4948127;28;20452;-84
2022/03/26 00:04:10;;;;;;;55.72;34.45;;;;;;;;;;4947371;28;20592;-84
2022/03/26 00:06:36;;;;;;;61.95;35.60;;;;;;;;;;4938716;28;20043;-84
2022/03/26 00:09:02;;;;;;;58.55;36.42;;;;;;;;;;4959629;28;20039;-84
2022/03/26 00:11:27;;;;;;;64.07;35.38;;;;;;;;;;4943786;28;20516;-84
2022/03/26 00:13:53;;;;;;;56.90;34.42;;;;;;;;;;4949041;28;20043;-84
2022/03/26 00:16:19;;;;;;;55.92;34.03;;;;;;;;;;4951644;28;20420;-84
2022/03/26 00:18:44;;;;;;;55.58;33.15;;;;;;;;;;4984287;28;20039;-84
2022/03/26 00:21:10;;;;;;;50.70;30.25;;;;;;;;;;4951864;28;20070;-84
2022/03/26 00:23:36;;;;;;;53.03;31.48;;;;;;;;;;4948534;28;20046;-84
2022/03/26 00:26:02;;;;;;;54.58;31.48;;;;;;;;;;4965194;28;20632;-83
2022/03/26 00:28:27;;;;;;;53.88;31.60;;;;;;;;;;4950403;28;20400;-84
2022/03/26 00:30:54;;;;;;;50.53;30.90;;;;;;;;;;4948897;28;20118;-84
2022/03/26 00:33:20;;;;;;;51.78;30.75;;;;;;;;;;4951833;28;20078;-84
2022/03/26 00:35:47;;;;;;;58.88;33.13;;;;;;;;;;4944129;28;20035;-84
2022/03/26 00:38:13;;;;;;;56.30;31.45;;;;;;;;;;4945719;28;20189;-84
2022/03/26 00:40:40;;;;;;;54.00;32.47;;;;;;;;;;4931287;28;20450;-84
2022/03/26 00:43:06;;;;;;;54.65;31.92;;;;;;;;;;4949645;28;20105;-84
2022/03/26 00:45:32;;;;;;;49.35;30.80;;;;;;;;;;4963235;28;20035;-84
2022/03/26 00:48:00;;;;;;;50.05;30.23;;;;;;;;;;4932627;28;20090;-84
2022/03/26 00:50:26;;;;;;;51.45;29.65;;;;;;;;;;4946573;28;20043;-84
2022/03/26 00:52:52;;;;;;;54.53;29.90;;;;;;;;;;4945563;28;20054;-84
2022/03/26 00:55:17;;;;;;;56.78;32.08;;;;;;;;;;4953300;28;20039;-83
2022/03/26 00:57:43;;;;;;;49.67;31.02;;;;;;;;;;4961946;28;20486;-83
2022/03/26 01:00:10;;;;;;;48.80;30.05;;;;;;;;;;4954501;28;20041;-83
2022/03/26 01:02:36;;;;;;;45.40;29.45;;;;;;;;;;4947365;28;20038;-84
2022/03/26 01:05:01;;;;;;;53.25;29.83;;;;;;;;;;4967515;28;20501;-84
2022/03/26 01:07:27;;;;;;;53.35;31.80;;;;;;;;;;4967217;28;20043;-84
2022/03/26 01:09:56;;;;;;;46.60;30.67;;;;;;;;;;4963552;28;20042;-83
2022/03/26 01:12:24;;;;;;;52.22;31.13;;;;;;;;;;4951824;28;20045;-83
2022/03/26 01:14:51;;;;;;;50.58;30.55;;;;;;;;;;4965943;28;20043;-83
2022/03/26 01:17:17;;;;;;;48.95;28.90;;;;;;;;;;4962133;28;20485;-84
2022/03/26 01:19:43;;;;;;;48.30;28.73;;;;;;;;;;4951429;28;20046;-84
2022/03/26 01:22:08;;;;;;;55.30;30.38;;;;;;;;;;4959387;28;20112;-83
2022/03/26 01:24:34;;;;;;;48.72;28.42;;;;;;;;;;4960036;28;20125;-84
2022/03/26 01:27:00;;;;;;;51.38;30.45;;;;;;;;;;4959008;28;20058;-84
2022/03/26 01:29:25;;;;;;;55.78;32.20;;;;;;;;;;4948967;28;20389;-84
2022/03/26 01:31:52;;;;;;;51.33;31.55;;;;;;;;;;4959974;28;20050;-84
2022/03/26 01:34:18;;;;;;;53.00;30.25;;;;;;;;;;4950301;28;20039;-84
2022/03/26 01:36:44;;;;;;;47.08;28.73;;;;;;;;;;4958805;28;20444;-83
2022/03/26 01:39:10;;;;;;;49.75;28.52;;;;;;;;;;4950968;28;20098;-83
2022/03/26 01:41:36;;;;;;;52.63;30.23;;;;;;;;;;4947073;28;20532;-83
2022/03/26 01:44:03;;;;;;;48.53;29.05;;;;;;;;;;4933927;28;20039;-83
2022/03/26 01:46:50;;;;;;;44.03;28.17;;;;;;;;;;4941430;28;20045;-83
2022/03/26 01:49:17;;;;;;;54.63;29.05;;;;;;;;;;4985746;28;20057;-83
2022/03/26 01:51:43;;;;;;;55.70;29.90;;;;;;;;;;4962717;28;20045;-83
2022/03/26 01:54:08;;;;;;;43.97;27.45;;;;;;;;;;4966504;28;20555;-83
2022/03/26 01:56:35;;;;;;;47.45;28.48;;;;;;;;;;4954429;28;20035;-83
2022/03/26 01:59:01;;;;;;;49.17;27.00;;;;;;;;;;4959282;28;20102;-83
2022/03/26 02:01:27;;;;;;;48.00;28.98;;;;;;;;;;4970529;28;20047;-83
2022/03/26 02:03:53;;;;;;;48.70;28.27;;;;;;;;;;4965022;28;20046;-83
2022/03/26 02:06:24;;;;;;;47.70;26.90;;;;;;;;;;4962919;28;20062;-83
2022/03/26 02:08:49;;;;;;;40.40;26.80;;;;;;;;;;4953540;28;20039;-83
2022/03/26 02:11:15;;;;;;;49.67;29.20;;;;;;;;;;4970123;28;20478;-83
2022/03/26 02:14:08;;;;;;;49.63;29.00;;;;;;;;;;4970024;28;20070;-83
2022/03/26 02:16:36;;;;;;;50.38;27.95;;;;;;;;;;4950451;28;20543;-83
2022/03/26 02:19:03;;;;;;;56.50;27.95;;;;;;;;;;4951027;28;20053;-83
2022/03/26 02:21:28;;;;;;;47.10;28.17;;;;;;;;;;4978541;28;20034;-83
2022/03/26 02:23:54;;;;;;;48.13;28.88;;;;;;;;;;4969733;28;20045;-83
2022/03/26 02:26:26;;;;;;;47.22;28.10;;;;;;;;;;4953555;28;20050;-83
2022/03/26 02:28:53;;;;;;;50.55;29.65;;;;;;;;;;4954088;28;20045;-83
2022/03/26 02:31:18;;;;;;;48.63;27.40;;;;;;;;;;4969127;28;20046;-83
2022/03/26 02:33:44;;;;;;;48.85;28.00;;;;;;;;;;4953579;28;20103;-83
2022/03/26 02:36:11;;;;;;;47.75;26.65;;;;;;;;;;4960779;28;20051;-83
2022/03/26 02:38:37;;;;;;;46.95;29.08;;;;;;;;;;4957632;28;20138;-83
2022/03/26 02:41:04;;;;;;;51.83;28.77;;;;;;;;;;4960143;28;20031;-83
2022/03/26 02:43:31;;;;;;;50.90;28.00;;;;;;;;;;4934191;28;20267;-83
2022/03/26 02:45:56;;;;;;;47.38;27.25;;;;;;;;;;4949188;28;20043;-83
2022/03/26 02:48:22;;;;;;;49.97;29.00;;;;;;;;;;4949494;28;20093;-83
2022/03/26 02:50:48;;;;;;;49.33;28.65;;;;;;;;;;4948302;28;20047;-83
2022/03/26 02:53:14;;;;;;;46.22;27.65;;;;;;;;;;4958021;28;20051;-83
2022/03/26 02:55:40;;;;;;;47.97;27.88;;;;;;;;;;4942090;28;20054;-83
2022/03/26 02:58:10;;;;;;;48.78;28.20;;;;;;;;;;4948662;28;20043;-83
2022/03/26 03:00:36;;;;;;;48.72;28.02;;;;;;;;;;4949470;28;20038;-83
2022/03/26 03:03:02;;;;;;;53.00;28.10;;;;;;;;;;4952759;28;20041;-83
2022/03/26 03:05:28;;;;;;;51.03;28.48;;;;;;;;;;4968346;28;20039;-83
2022/03/26 03:07:54;;;;;;;47.97;27.63;;;;;;;;;;4939335;28;20049;-83
2022/03/26 03:10:20;;;;;;;49.63;29.38;;;;;;;;;;4945867;28;20043;-83
2022/03/26 03:12:47;;;;;;;52.22;28.92;;;;;;;;;;4939599;28;20039;-83
2022/03/26 03:15:13;;;;;;;45.45;27.60;;;;;;;;;;4938599;28;20039;-83
2022/03/26 03:17:40;;;;;;;53.35;28.10;;;;;;;;;;4948310;28;20036;-83
2022/03/26 03:20:07;;;;;;;49.50;27.38;;;;;;;;;;4936713;28;20040;-83
2022/03/26 03:22:33;;;;;;;55.17;30.17;;;;;;;;;;4961020;28;20041;-83
2022/03/26 03:24:59;;;;;;;53.55;30.77;;;;;;;;;;4946153;28;20066;-83
2022/03/26 03:27:24;;;;;;;56.00;29.95;;;;;;;;;;4968651;28;20035;-83
2022/03/26 03:29:51;;;;;;;48.22;28.05;;;;;;;;;;4949784;28;20050;-84
2022/03/26 03:32:17;;;;;;;51.03;28.70;;;;;;;;;;4947309;28;20039;-83
2022/03/26 03:34:43;;;;;;;53.70;28.83;;;;;;;;;;4965353;28;20067;-83
2022/03/26 03:37:09;;;;;;;50.60;28.63;;;;;;;;;;4956888;28;20501;-83
2022/03/26 03:39:34;;;;;;;51.88;28.50;;;;;;;;;;4956097;28;20047;-83
2022/03/26 03:42:00;;;;;;;52.72;28.88;;;;;;;;;;4953928;28;20058;-82
2022/03/26 03:44:26;;;;;;;51.67;28.75;;;;;;;;;;4981847;28;20105;-82
2022/03/26 03:46:52;;;;;;;49.30;28.77;;;;;;;;;;4946413;28;20066;-82
2022/03/26 03:49:19;;;;;;;53.83;27.75;;;;;;;;;;4948296;28;20042;-82
2022/03/26 03:51:44;;;;;;;54.10;28.85;;;;;;;;;;4966372;28;20041;-82
2022/03/26 03:54:10;;;;;;;56.53;30.35;;;;;;;;;;4944104;28;20070;-82
2022/03/26 03:56:36;;;;;;;52.85;30.08;;;;;;;;;;4967379;28;20043;-83
2022/03/26 03:59:02;;;;;;;52.33;29.40;;;;;;;;;;4952619;28;20046;-83
2022/03/26 04:01:28;;;;;;;55.35;28.83;;;;;;;;;;4952599;28;20043;-83
2022/03/26 04:03:54;;;;;;;56.53;29.15;;;;;;;;;;4949868;28;20115;-83
2022/03/26 04:06:19;;;;;;;56.97;30.48;;;;;;;;;;4948196;28;20117;-82
2022/03/26 04:08:45;;;;;;;54.42;30.00;;;;;;;;;;4945634;28;20094;-83
2022/03/26 04:11:11;;;;;;;53.80;28.95;;;;;;;;;;4950883;28;20101;-83
2022/03/26 04:13:36;;;;;;;56.53;29.33;;;;;;;;;;4941514;28;20043;-83
2022/03/26 04:16:02;;;;;;;55.72;29.85;;;;;;;;;;4945821;28;20301;-83
2022/03/26 04:18:28;;;;;;;56.97;29.85;;;;;;;;;;4938267;28;20071;-83
2022/03/26 04:20:54;;;;;;;60.20;31.63;;;;;;;;;;4949932;28;20070;-82
2022/03/26 04:23:21;;;;;;;61.10;30.65;;;;;;;;;;4937502;28;20086;-83
2022/03/26 04:25:47;;;;;;;54.33;28.65;;;;;;;;;;4946983;28;20040;-82
2022/03/26 04:28:13;;;;;;;58.15;30.65;;;;;;;;;;4950826;28;20498;-82
2022/03/26 04:30:40;;;;;;;54.10;31.05;;;;;;;;;;4952866;28;20055;-82
2022/03/26 04:33:06;;;;;;;60.55;31.98;;;;;;;;;;4950752;28;20168;-82
2022/03/26 04:35:32;;;;;;;52.17;29.92;;;;;;;;;;4959621;28;20047;-82
2022/03/26 04:37:57;;;;;;;51.10;29.63;;;;;;;;;;4960962;28;20039;-82
2022/03/26 04:40:24;;;;;;;54.03;30.42;;;;;;;;;;4950592;28;20089;-83
2022/03/26 04:42:50;;;;;;;58.33;30.80;;;;;;;;;;4975084;28;20451;-82
2022/03/26 04:45:16;;;;;;;55.53;31.13;;;;;;;;;;4967545;28;20038;-82
2022/03/26 04:47:42;;;;;;;60.97;30.45;;;;;;;;;;4946495;28;20040;-83
2022/03/26 04:50:08;;;;;;;57.17;30.77;;;;;;;;;;4956693;28;20050;-82
2022/03/26 04:52:34;;;;;;;62.10;32.03;;;;;;;;;;4950418;28;20062;-82
2022/03/26 04:55:00;;;;;;;58.60;31.02;;;;;;;;;;4938204;28;20107;-82
2022/03/26 04:57:26;;;;;;;57.88;31.40;;;;;;;;;;4948467;28;20039;-83
2022/03/26 04:59:52;;;;;;;61.28;31.17;;;;;;;;;;4938502;28;20054;-82
2022/03/26 05:02:18;;;;;;;60.55;31.67;;;;;;;;;;4958948;28;20138;-82
2022/03/26 05:04:44;;;;;;;59.75;31.10;;;;;;;;;;4980002;28;20061;-83
2022/03/26 05:09:54;;;;;;;56.95;31.20;;;;;;;;;;4952380;28;20046;-82
2022/03/26 05:12:20;;;;;;;57.88;33.00;;;;;;;;;;4948088;28;20038;-82
2022/03/26 05:14:45;;;;;;;61.50;32.58;;;;;;;;;;4943320;28;20055;-83
2022/03/26 05:17:12;;;;;;;67.15;34.35;;;;;;;;;;4949436;28;20047;-82
2022/03/26 05:19:37;;;;;;;61.03;33.00;;;;;;;;;;4942591;28;20043;-82
2022/03/26 05:22:04;;;;;;;63.53;32.47;;;;;;;;;;4957344;28;20034;-83
2022/03/26 05:24:30;;;;;;;58.38;32.55;;;;;;;;;;4958003;28;20038;-82
2022/03/26 05:26:55;;;;;;;69.78;33.67;;;;;;;;;;4946129;28;20481;-82
2022/03/26 05:29:21;;;;;;;62.67;34.35;;;;;;;;;;4947240;28;20125;-82
2022/03/26 05:31:47;;;;;;;60.90;32.92;;;;;;;;;;4967092;28;20047;-82
2022/03/26 05:34:13;;;;;;;57.78;32.35;;;;;;;;;;4940172;28;20043;-82
2022/03/26 05:36:39;;;;;;;61.03;33.08;;;;;;;;;;4938562;28;20409;-82
2022/03/26 05:39:05;;;;;;;57.75;33.13;;;;;;;;;;4942287;28;20408;-82
2022/03/26 05:41:31;;;;;;;61.42;32.55;;;;;;;;;;4940273;28;20051;-82
2022/03/26 05:43:56;;;;;;;66.85;32.72;;;;;;;;;;4949261;28;20081;-83
2022/03/26 05:46:22;;;;;;;64.13;31.00;;;;;;;;;;4966882;28;20043;-83
2022/03/26 05:48:48;;;;;;;61.33;32.80;;;;;;;;;;4958550;28;20046;-82
2022/03/26 05:51:13;;;;;;;65.05;33.78;;;;;;;;;;4947236;28;20034;-83
2022/03/26 05:53:40;;;;;;;60.47;32.08;;;;;;;;;;4950271;28;20043;-83
2022/03/26 05:56:06;;;;;;;65.47;33.42;;;;;;;;;;4950616;28;20042;-82
2022/03/26 05:58:32;;;;;;;64.97;33.92;;;;;;;;;;4950775;28;20047;-82
2022/03/26 06:00:58;;;;;;;63.17;33.55;;;;;;;;;;4949824;28;20035;-82
2022/03/26 06:03:23;;;;;;;59.28;33.03;;;;;;;;;;4965380;28;20043;-82
2022/03/26 06:05:49;;;;;;;64.32;33.22;;;;;;;;;;4947021;28;20531;-82
2022/03/26 06:08:15;;;;;;;64.45;33.60;;;;;;;;;;4965843;28;20038;-82
2022/03/26 06:10:41;;;;;;;63.92;34.17;;;;;;;;;;4955292;28;20778;-82
2022/03/26 06:13:07;;;;;;;59.63;31.75;;;;;;;;;;4944329;28;20039;-82
2022/03/26 06:15:36;;;;;;;67.93;33.55;;;;;;;;;;4964326;28;20050;-83
2022/03/26 06:18:02;;;;;;;64.57;34.00;;;;;;;;;;4944326;28;20046;-82
2022/03/26 06:20:28;;;;;;;63.83;34.22;;;;;;;;;;4946857;28;20054;-82
2022/03/26 06:22:54;;;;;;;65.45;35.78;;;;;;;;;;4947513;28;20031;-82
2022/03/26 06:25:23;;;;;;;61.42;34.05;;;;;;;;;;4965283;28;20129;-82
2022/03/26 06:27:49;;;;;;;55.17;32.45;;;;;;;;;;4950187;28;20122;-84
2022/03/26 06:30:15;;;;;;;62.00;32.90;;;;;;;;;;4945886;28;20038;-82
2022/03/26 06:32:41;;;;;;;57.10;32.15;;;;;;;;;;4952821;28;20460;-82
2022/03/26 06:35:07;;;;;;;58.35;32.28;;;;;;;;;;4953468;28;20046;-82
2022/03/26 06:37:33;;;;;;;55.15;30.75;;;;;;;;;;4940455;28;20062;-82
2022/03/26 06:39:58;;;;;;;55.13;30.27;;;;;;;;;;4969355;28;20425;-82
2022/03/26 06:42:25;;;;;;;50.45;30.48;;;;;;;;;;4968778;28;20043;-83
2022/03/26 06:44:52;;;;;;;53.30;31.13;;;;;;;;;;4951377;28;20498;-83
2022/03/26 06:47:17;;;;;;;47.33;29.60;;;;;;;;;;4942292;28;20031;-83
2022/03/26 06:49:43;;;;;;;51.17;30.02;;;;;;;;;;4945949;28;20043;-83
2022/03/26 06:52:09;;;;;;;49.05;29.55;;;;;;;;;;4948982;28;20051;-83
2022/03/26 06:54:35;;;;;;;47.67;28.30;;;;;;;;;;4934534;28;20047;-83
2022/03/26 06:57:01;;;;;;;48.25;29.42;;;;;;;;;;4957924;28;20202;-83
2022/03/26 06:59:27;;;;;;;46.70;29.05;;;;;;;;;;4947223;28;20050;-83
2022/03/26 07:01:52;;;;;;;50.30;30.58;;;;;;;;;;4931527;28;20048;-83
2022/03/26 07:04:18;;;;;;;46.55;30.20;;;;;;;;;;4935183;28;20097;-82
2022/03/26 07:06:44;;;;;;;46.67;29.35;;;;;;;;;;4946972;28;20064;-82
2022/03/26 07:09:10;;;;;;;45.50;29.55;;;;;;;;;;4954191;28;20461;-85
2022/03/26 07:11:35;;;;;;;46.08;27.40;;;;;;;;;;4934656;28;20047;-84
2022/03/26 07:14:01;;;;;;;46.45;29.13;;;;;;;;;;4934094;28;20051;-84
2022/03/26 07:16:27;;;;;;;43.80;29.50;;;;;;;;;;4952775;28;20050;-84
2022/03/26 07:18:53;;;;;;;48.65;29.67;;;;;;;;;;4953897;28;20129;-84
2022/03/26 07:21:18;;;;;;;47.75;29.52;;;;;;;;;;4973562;28;20102;-84
2022/03/26 07:23:44;;;;;;;43.88;28.67;;;;;;;;;;4936153;28;20397;-84
2022/03/26 07:26:10;;;;;;;48.85;29.85;;;;;;;;;;4953594;28;20094;-83
2022/03/26 07:28:36;;;;;;;52.58;31.17;;;;;;;;;;4956657;28;20050;-84
2022/03/26 07:31:02;;;;;;;52.08;30.50;;;;;;;;;;4970389;28;20513;-84
2022/03/26 07:33:27;;;;;;;54.25;30.30;;;;;;;;;;4952722;28;20093;-83
2022/03/26 07:35:53;;;;;;;51.03;30.08;;;;;;;;;;4968420;28;20436;-83
2022/03/26 07:38:19;;;;;;;47.55;28.75;;;;;;;;;;4968546;28;20587;-83
2022/03/26 07:40:45;;;;;;;46.47;27.90;;;;;;;;;;4950214;28;20131;-80
2022/03/26 07:43:10;;;;;;;45.38;28.63;;;;;;;;;;4946713;28;20127;-80
2022/03/26 07:45:36;;;;;;;45.70;27.75;;;;;;;;;;4945950;28;20047;-80
2022/03/26 07:48:03;;;;;;;50.95;30.52;;;;;;;;;;4946137;28;20089;-80
2022/03/26 07:50:29;;;;;;;50.40;30.30;;;;;;;;;;4939588;28;20043;-80
2022/03/26 07:52:54;;;;;;;45.65;26.15;;;;;;;;;;4947597;28;20576;-80
2022/03/26 07:55:20;;;;;;;47.17;27.35;;;;;;;;;;4949600;28;20604;-80
2022/03/26 07:57:46;;;;;;;46.50;27.67;;;;;;;;;;4965357;28;20035;-80
2022/03/26 08:00:12;;;;;;;42.30;27.52;;;;;;;;;;4932101;28;20059;-81
2022/03/26 08:02:38;;;;;;;45.33;26.77;;;;;;;;;;4949595;28;20035;-80
2022/03/26 08:05:05;;;;;;;42.58;26.40;;;;;;;;;;4962859;28;20125;-80
2022/03/26 08:07:31;;;;;;;42.28;26.90;;;;;;;;;;4940191;28;20039;-81
2022/03/26 08:09:57;;;;;;;37.10;24.02;;;;;;;;;;4939980;28;20043;-81
2022/03/26 08:12:22;;;;;;;42.97;26.52;;;;;;;;;;4955686;28;20508;-81
2022/03/26 08:14:48;;;;;;;40.72;25.90;;;;;;;;;;4963283;28;20046;-81
2022/03/26 08:17:14;;;;;;;43.75;25.48;;;;;;;;;;4953747;28;20393;-84
2022/03/26 08:19:40;;;;;;;43.55;24.50;;;;;;;;;;4931647;28;20043;-84
2022/03/26 08:22:05;;;;;;;38.53;24.35;;;;;;;;;;4950928;28;20116;-83
2022/03/26 08:24:31;;;;;;;38.85;25.42;;;;;;;;;;4950203;28;20086;-83
2022/03/26 08:26:57;;;;;;;34.53;23.67;;;;;;;;;;4942310;28;20158;-81
2022/03/26 08:29:23;;;;;;;33.65;22.88;;;;;;;;;;4947347;28;20137;-81
2022/03/26 08:31:49;;;;;;;39.05;23.60;;;;;;;;;;4929857;28;20046;-83
2022/03/26 08:34:14;;;;;;;34.38;22.75;;;;;;;;;;4939854;28;20489;-81
2022/03/26 08:36:40;;;;;;;37.75;22.95;;;;;;;;;;4955582;28;20117;-82
2022/03/26 08:39:06;;;;;;;32.83;23.23;;;;;;;;;;4958642;28;20456;-83
2022/03/26 08:41:31;;;;;;;35.45;23.95;;;;;;;;;;4945548;28;20058;-84
2022/03/26 08:43:57;;;;;;;38.85;24.33;;;;;;;;;;4953578;28;20420;-83
2022/03/26 08:46:23;;;;;;;32.63;21.88;;;;;;;;;;4950463;28;20046;-82
2022/03/26 08:48:50;;;;;;;34.80;21.40;;;;;;;;;;4966935;28;20677;-82
2022/03/26 08:51:16;;;;;;;32.95;20.80;;;;;;;;;;4949422;28;20147;-83
2022/03/26 08:53:42;;;;;;;35.92;21.67;;;;;;;;;;4955599;28;20047;-83
2022/03/26 08:56:08;;;;;;;33.38;20.75;;;;;;;;;;4950066;28;20271;-82
2022/03/26 08:58:34;;;;;;;33.85;20.55;;;;;;;;;;4964825;28;20039;-83
2022/03/26 09:01:01;;;;;;;31.83;19.33;;;;;;;;;;4951512;28;20042;-81
2022/03/26 09:03:27;;;;;;;34.92;19.88;;;;;;;;;;4965104;28;20117;-81
2022/03/26 09:05:53;;;;;;;30.80;19.40;;;;;;;;;;4961362;28;20039;-81
2022/03/26 09:08:19;;;;;;;28.95;19.65;;;;;;;;;;4943666;28;20580;-82
2022/03/26 09:10:45;;;;;;;31.17;20.65;;;;;;;;;;4971611;28;20563;-82
2022/03/26 09:13:11;;;;;;;30.42;20.58;;;;;;;;;;4957786;28;20079;-81
2022/03/26 09:15:37;;;;;;;36.67;20.88;;;;;;;;;;4949912;28;20039;-81
2022/03/26 09:18:04;;;;;;;29.92;19.55;;;;;;;;;;4958213;28;20603;-81
2022/03/26 09:20:29;;;;;;;28.20;19.45;;;;;;;;;;4947628;28;20133;-81
2022/03/26 09:22:55;;;;;;;28.40;18.48;;;;;;;;;;4947244;28;20364;-81
2022/03/26 09:25:21;;;;;;;31.80;20.08;;;;;;;;;;4952277;28;20043;-81
2022/03/26 09:27:48;;;;;;;28.88;20.13;;;;;;;;;;4943616;28;20051;-81
2022/03/26 09:30:15;;;;;;;31.45;19.65;;;;;;;;;;4953820;28;20074;-81
2022/03/26 09:32:41;;;;;;;27.65;20.00;;;;;;;;;;4965886;28;20113;-81
2022/03/26 09:35:07;;;;;;;29.42;19.98;;;;;;;;;;4944955;28;20041;-81
2022/03/26 09:37:33;;;;;;;31.67;21.40;;;;;;;;;;4954694;28;20053;-82
2022/03/26 09:39:59;;;;;;;29.05;18.17;;;;;;;;;;4929307;28;20122;-81
2022/03/26 09:42:26;;;;;;;25.60;18.42;;;;;;;;;;4965535;28;20035;-80
2022/03/26 09:44:52;;;;;;;26.77;18.25;;;;;;;;;;4953759;28;20051;-81
2022/03/26 09:47:18;;;;;;;26.50;18.67;;;;;;;;;;4965153;28;20038;-80
2022/03/26 09:49:43;;;;;;;27.27;17.98;;;;;;;;;;4965554;28;20034;-80
2022/03/26 09:52:09;;;;;;;25.83;17.17;;;;;;;;;;4957952;28;20070;-80
2022/03/26 09:54:36;;;;;;;22.95;15.70;;;;;;;;;;4957020;28;20039;-81
2022/03/26 09:57:03;;;;;;;21.65;15.15;;;;;;;;;;4955737;28;20035;-80
2022/03/26 09:59:29;;;;;;;23.45;15.20;;;;;;;;;;4945778;28;20054;-80
2022/03/26 10:01:55;;;;;;;22.17;15.48;;;;;;;;;;4974354;28;20460;-80
2022/03/26 10:04:23;;;;;;;20.45;13.75;;;;;;;;;;4948933;28;20091;-80
2022/03/26 10:06:53;;;;;;;18.38;13.60;;;;;;;;;;4947521;28;20047;-80
2022/03/26 10:09:38;;;;;;;19.50;13.95;;;;;;;;;;4946528;28;20134;-80
2022/03/26 10:12:16;;;;;;;20.17;13.98;;;;;;;;;;4953170;28;20299;-80
2022/03/26 10:14:47;;;;;;;21.42;14.52;;;;;;;;;;4963918;28;20556;-80
2022/03/26 10:17:26;;;;;;;20.08;14.40;;;;;;;;;;4948908;28;20035;-80
2022/03/26 10:19:57;;;;;;;22.05;14.32;;;;;;;;;;4961094;28;20142;-78
2022/03/26 10:22:26;;;;;;;22.08;15.73;;;;;;;;;;4970552;28;20042;-81
2022/03/26 10:24:53;;;;;;;22.17;15.60;;;;;;;;;;4947304;28;20057;-79
2022/03/26 10:27:19;;;;;;;21.13;15.15;;;;;;;;;;4958306;28;20035;-80
2022/03/26 10:29:49;;;;;;;23.17;15.57;;;;;;;;;;4968356;28;20408;-80
2022/03/26 10:32:45;;;;;;;22.35;15.02;;;;;;;;;;4954857;28;20043;-80
2022/03/26 10:35:27;;;;;;;20.45;14.25;;;;;;;;;;4961715;28;20035;-83
2022/03/26 10:37:59;;;;;;;20.23;13.18;;;;;;;;;;4956044;28;20047;-80
2022/03/26 10:40:34;;;;;;;19.52;13.88;;;;;;;;;;4946812;28;20047;-80
2022/03/26 10:43:10;;;;;;;27.13;15.30;;;;;;;;;;4964101;28;20031;-80
2022/03/26 10:45:38;;;;;;;21.30;15.32;;;;;;;;;;4953575;28;20356;-80
2022/03/26 10:48:09;;;;;;;21.80;13.20;;;;;;;;;;4951832;28;20384;-80
2022/03/26 10:50:35;;;;;;;18.63;12.98;;;;;;;;;;4953723;28;20548;-80
2022/03/26 10:53:06;;;;;;;21.25;14.95;;;;;;;;;;4959452;28;20050;-80
2022/03/26 10:55:32;;;;;;;20.45;13.40;;;;;;;;;;4952905;28;20039;-80
2022/03/26 10:57:59;;;;;;;19.15;14.20;;;;;;;;;;4961204;28;20403;-80
2022/03/26 11:00:25;;;;;;;17.10;12.90;;;;;;;;;;4965474;28;20133;-81
2022/03/26 11:02:51;;;;;;;20.20;14.50;;;;;;;;;;4944488;28;20090;-82
2022/03/26 11:05:16;;;;;;;20.45;13.73;;;;;;;;;;4951828;28;20067;-81
2022/03/26 11:07:42;;;;;;;22.27;14.30;;;;;;;;;;4971282;28;20078;-84
2022/03/26 11:10:13;;;;;;;20.00;14.93;;;;;;;;;;4943735;28;20031;-81
2022/03/26 11:12:44;;;;;;;18.65;13.73;;;;;;;;;;4946871;28;20050;-80
2022/03/26 11:15:12;;;;;;;19.98;14.50;;;;;;;;;;4963742;28;20042;-81
2022/03/26 11:17:48;;;;;;;21.33;14.15;;;;;;;;;;4968884;28;20046;-81
2022/03/26 11:20:21;;;;;;;21.13;15.07;;;;;;;;;;4967629;28;20411;-80
2022/03/26 11:23:11;;;;;;;23.27;15.05;;;;;;;;;;4952695;28;20134;-81
2022/03/26 11:25:50;;;;;;;21.70;15.23;;;;;;;;;;4945999;28;20047;-81
2022/03/26 11:28:29;;;;;;;23.40;14.85;;;;;;;;;;4952003;28;20123;-82
2022/03/26 11:31:01;;;;;;;24.88;16.30;;;;;;;;;;4957488;28;20049;-81
2022/03/26 11:33:34;;;;;;;28.60;15.82;;;;;;;;;;4952616;28;20030;-81
2022/03/26 11:36:02;;;;;;;25.55;16.73;;;;;;;;;;4937260;28;20372;-81
2022/03/26 11:38:30;;;;;;;24.88;16.52;;;;;;;;;;4946732;28;20039;-82
2022/03/26 11:40:58;;;;;;;24.30;16.50;;;;;;;;;;4968496;28;20094;-81
2022/03/26 11:43:42;;;;;;;23.40;16.90;;;;;;;;;;4962494;28;20070;-82
2022/03/26 11:51:51;;;;;;;23.48;16.23;;;;;;;;;;4972674;28;20041;-79
2022/03/26 11:54:18;;;;;;;24.00;16.88;;;;;;;;;;4986203;28;20496;-80
2022/03/26 11:56:47;;;;;;;24.00;17.88;;;;;;;;;;4961787;28;20035;-80
2022/03/26 11:59:15;;;;;;;24.00;17.92;;;;;;;;;;4956221;28;20078;-79
2022/03/26 12:01:43;;;;;;;29.02;18.20;;;;;;;;;;4974429;28;20047;-80
2022/03/26 12:04:10;;;;;;;27.98;18.02;;;;;;;;;;4931925;28;20161;-80
2022/03/26 12:06:44;;;;;;;24.92;16.63;;;;;;;;;;4950356;28;20039;-79
2022/03/26 12:09:11;;;;;;;23.55;15.85;;;;;;;;;;4950605;28;20041;-79
2022/03/26 12:11:37;;;;;;;24.27;16.95;;;;;;;;;;4943358;28;20042;-79
2022/03/26 12:14:06;;;;;;;24.77;17.10;;;;;;;;;;4950149;28;20035;-79
2022/03/26 12:16:51;;;;;;;26.13;16.30;;;;;;;;;;4965990;28;20501;-80
2022/03/26 12:19:39;;;;;;;22.48;15.70;;;;;;;;;;4990456;28;20046;-79
2022/03/26 12:22:33;;;;;;;25.58;17.55;;;;;;;;;;4948468;28;20050;-79
2022/03/26 12:25:00;;;;;;;25.92;17.63;;;;;;;;;;4950403;28;20135;-79
2022/03/26 12:27:26;;;;;;;25.65;17.40;;;;;;;;;;4957507;28;20110;-82
2022/03/26 12:29:57;;;;;;;24.95;16.45;;;;;;;;;;4943850;28;20057;-80
2022/03/26 12:32:32;;;;;;;25.35;15.50;;;;;;;;;;4950529;28;20054;-80
2022/03/26 12:35:07;;;;;;;26.17;16.10;;;;;;;;;;4978937;28;20069;-81
2022/03/26 12:37:33;;;;;;;24.05;16.17;;;;;;;;;;4939797;28;20039;-80
2022/03/26 12:39:59;;;;;;;24.35;17.02;;;;;;;;;;4969377;28;20047;-80
2022/03/26 12:42:26;;;;;;;26.10;17.00;;;;;;;;;;4953229;28;20134;-80
2022/03/26 12:44:53;;;;;;;25.15;17.13;;;;;;;;;;4955048;28;20053;-79
2022/03/26 12:47:23;;;;;;;25.83;16.15;;;;;;;;;;4959013;28;20508;-80
2022/03/26 12:49:50;;;;;;;23.45;17.05;;;;;;;;;;4965366;28;20436;-80
2022/03/26 12:52:17;;;;;;;23.83;17.15;;;;;;;;;;4965236;28;20093;-79
2022/03/26 12:54:43;;;;;;;26.70;17.55;;;;;;;;;;4950964;28;20049;-81
2022/03/26 12:57:09;;;;;;;28.75;17.98;;;;;;;;;;4970964;28;20488;-78
2022/03/26 12:59:34;;;;;;;28.65;18.30;;;;;;;;;;4973626;28;20466;-79
2022/03/26 13:02:01;;;;;;;25.05;16.02;;;;;;;;;;4963449;28;20053;-78
2022/03/26 13:04:28;;;;;;;27.45;16.80;;;;;;;;;;4958912;28;20035;-79
2022/03/26 13:06:55;;;;;;;26.00;18.02;;;;;;;;;;4942967;28;20047;-78
2022/03/26 13:09:21;;;;;;;28.58;18.50;;;;;;;;;;4952424;28;20853;-78
2022/03/26 13:11:51;;;;;;;29.52;19.38;;;;;;;;;;4939107;28;20464;-79
2022/03/26 13:14:19;;;;;;;29.85;19.33;;;;;;;;;;4962711;28;20065;-79
2022/03/26 13:16:50;;;;;;;31.00;20.10;;;;;;;;;;4942341;28;20094;-79
2022/03/26 13:19:16;;;;;;;29.17;19.40;;;;;;;;;;4956323;28;20055;-79
2022/03/26 13:21:51;;;;;;;29.65;20.80;;;;;;;;;;4956722;28;20403;-79
2022/03/26 13:24:20;;;;;;;32.00;21.00;;;;;;;;;;4958645;28;20073;-78
2022/03/26 13:26:54;;;;;;;32.08;20.90;;;;;;;;;;4983187;28;20447;-79
2022/03/26 13:29:22;;;;;;;35.80;23.50;;;;;;;;;;4941247;28;20050;-80
2022/03/26 13:31:53;;;;;;;37.88;24.65;;;;;;;;;;4955525;28;20051;-80
2022/03/26 13:34:30;;;;;;;36.38;22.50;;;;;;;;;;4961647;28;20598;-80
2022/03/26 13:37:07;;;;;;;39.42;24.85;;;;;;;;;;4942378;28;20501;-80
2022/03/26 13:39:34;;;;;;;37.65;23.77;;;;;;;;;;4962533;28;20898;-80
2022/03/26 13:42:14;;;;;;;42.60;26.70;;;;;;;;;;4946486;28;20054;-79
2022/03/26 13:44:40;;;;;;;46.72;27.75;;;;;;;;;;4965018;28;20053;-78
2022/03/26 13:47:06;;;;;;;44.58;28.33;;;;;;;;;;4944729;28;20500;-79
2022/03/26 13:49:33;;;;;;;41.10;26.45;;;;;;;;;;4930740;28;20073;-79
2022/03/26 13:52:02;;;;;;;44.33;26.38;;;;;;;;;;4967659;28;20045;-80
2022/03/26 13:54:32;;;;;;;39.60;26.77;;;;;;;;;;4941942;28;20085;-80
2022/03/26 13:56:59;;;;;;;42.15;27.08;;;;;;;;;;4940920;28;20039;-80
2022/03/26 13:59:26;;;;;;;44.08;25.70;;;;;;;;;;4953018;28;20579;-81
2022/03/26 14:01:54;;;;;;;45.72;26.83;;;;;;;;;;4946113;28;20185;-79
2022/03/26 14:04:28;;;;;;;41.20;25.95;;;;;;;;;;4944574;28;20492;-79
2022/03/26 14:06:54;;;;;;;38.95;25.88;;;;;;;;;;4967327;28;20104;-80
2022/03/26 14:09:21;;;;;;;39.15;25.67;;;;;;;;;;4951418;28;20039;-81
2022/03/26 14:11:47;;;;;;;41.40;25.60;;;;;;;;;;4979643;28;20039;-81
2022/03/26 14:14:13;;;;;;;41.50;24.13;;;;;;;;;;4962656;28;20543;-79
2022/03/26 14:16:39;;;;;;;39.35;24.95;;;;;;;;;;4947979;28;20093;-78
2022/03/26 14:19:05;;;;;;;37.13;23.38;;;;;;;;;;4965025;28;20051;-79
2022/03/26 14:21:31;;;;;;;34.15;20.73;;;;;;;;;;4980408;28;20074;-81
2022/03/26 14:23:56;;;;;;;36.28;21.27;;;;;;;;;;4949990;28;20054;-80
2022/03/26 14:26:22;;;;;;;34.22;20.02;;;;;;;;;;4964340;28;20610;-80